Time;durP1;ratioP1;P1;durP2;ratioP2;P2;SDS_P1;SDS_P2;PMS_P1;PMS_P2;Temp;Humidity;BMP_temperature;BMP_pressure;BME280_temperature;BME280_humidity;BME280_pressure;Samples;Min_cycle;Max_cycle;Signal;HPM_P1;HPM_P2
2023/08/06 00:01:14;;;;;;;;;;;14.20;99.90;;;;;;5115636;28;20003;-78
2023/08/06 00:03:39;;;;;;;;;;;14.20;99.90;;;;;;5115043;28;19928;-78
2023/08/06 00:06:06;;;;;;;;;;;14.20;99.90;;;;;;5114544;28;20011;-79
2023/08/06 00:08:31;;;;;;;;;;;14.20;99.90;;;;;;5098017;28;20265;-79
2023/08/06 00:10:57;;;;;;;;;;;14.20;99.90;;;;;;5115164;28;19974;-79
2023/08/06 00:13:22;;;;;;;;;;;14.20;99.90;;;;;;5115033;28;19924;-79
2023/08/06 00:15:48;;;;;;;;;;;14.20;99.90;;;;;;5115952;28;19928;-79
2023/08/06 00:18:14;;;;;;;;;;;14.20;99.90;;;;;;5115310;28;19924;-79
2023/08/06 00:20:40;;;;;;;;;;;14.20;99.90;;;;;;5114368;28;19924;-78
2023/08/06 00:23:06;;;;;;;;;;;14.20;99.90;;;;;;5115076;28;20089;-78
2023/08/06 00:25:31;;;;;;;;;;;14.20;99.90;;;;;;5114587;28;19978;-79
2023/08/06 00:27:57;;;;;;;;;;;14.20;99.90;;;;;;5116300;28;20042;-78
2023/08/06 00:30:22;;;;;;;;;;;14.20;99.90;;;;;;5114638;28;19923;-78
2023/08/06 00:32:48;;;;;;;;;;;14.20;99.90;;;;;;5114990;27;19962;-78
2023/08/06 00:35:14;;;;;;;;;;;14.20;99.90;;;;;;5113790;28;20273;-78
2023/08/06 00:37:40;;;;;;;;;;;14.20;99.90;;;;;;5115595;28;19924;-78
2023/08/06 00:40:07;;;;;;;;;;;14.20;99.90;;;;;;5115084;28;19923;-78
2023/08/06 00:42:32;;;;;;;;;;;14.20;99.90;;;;;;5113766;28;19946;-79
2023/08/06 00:44:58;;;;;;;;;;;14.20;99.90;;;;;;5113687;28;19932;-79
2023/08/06 00:47:24;;;;;;;;;;;14.20;99.90;;;;;;5114954;28;20029;-77
2023/08/06 00:49:50;;;;;;;;;;;14.10;99.90;;;;;;5114132;28;19928;-79
2023/08/06 00:52:15;;;;;;;;;;;14.10;99.90;;;;;;5114019;28;19924;-79
2023/08/06 00:54:41;;;;;;;;;;;14.20;99.90;;;;;;5115168;28;20377;-79
2023/08/06 00:57:07;;;;;;;;;;;14.20;99.90;;;;;;5130509;27;19930;-79
2023/08/06 00:59:32;;;;;;;;;;;14.20;99.90;;;;;;5115538;28;19966;-78
2023/08/06 01:01:58;;;;;;;;;;;14.20;99.90;;;;;;5115165;28;20006;-79
2023/08/06 01:04:24;;;;;;;;;;;14.20;99.90;;;;;;5147817;27;20085;-78
2023/08/06 01:07:12;;;;;;;;;;;14.00;99.90;;;;;;5115162;28;19924;-77
2023/08/06 01:09:38;;;;;;;;;;;14.20;99.90;;;;;;5102047;28;19924;-78
2023/08/06 01:12:11;;;;;;;;;;;14.20;99.90;;;;;;5114216;28;19938;-78
2023/08/06 01:14:43;;;;;;;;;;;14.20;99.90;;;;;;5113668;28;19939;-79
2023/08/06 01:17:09;;;;;;;;;;;14.20;99.90;;;;;;5113086;28;19932;-79
2023/08/06 01:19:35;;;;;;;;;;;14.10;99.90;;;;;;5113464;28;20330;-78
2023/08/06 01:22:00;;;;;;;;;;;14.10;99.90;;;;;;5114324;28;20019;-78
2023/08/06 01:24:26;;;;;;;;;;;14.10;99.90;;;;;;5112522;28;20019;-78
2023/08/06 01:26:56;;;;;;;;;;;14.10;99.90;;;;;;5089164;28;19923;-79
2023/08/06 01:29:33;;;;;;;;;;;14.20;99.90;;;;;;5111985;28;19985;-79
2023/08/06 01:31:58;;;;;;;;;;;14.10;99.90;;;;;;5113469;28;19963;-78
2023/08/06 01:34:25;;;;;;;;;;;14.10;99.90;;;;;;5112390;28;19924;-79
2023/08/06 01:36:52;;;;;;;;;;;14.10;99.90;;;;;;5114905;28;19928;-79
2023/08/06 01:39:20;;;;;;;;;;;14.10;99.90;;;;;;5114251;28;19931;-79
2023/08/06 01:41:46;;;;;;;;;;;14.10;99.90;;;;;;5114346;28;19966;-79
2023/08/06 01:44:12;;;;;;;;;;;14.10;99.90;;;;;;5113174;28;19923;-80
2023/08/06 01:46:38;;;;;;;;;;;14.10;99.90;;;;;;5114089;28;20010;-79
2023/08/06 01:49:03;;;;;;;;;;;14.10;99.90;;;;;;5100047;28;20380;-78
2023/08/06 01:51:29;;;;;;;;;;;14.10;99.90;;;;;;5130265;27;19935;-77
2023/08/06 01:53:54;;;;;;;;;;;14.10;99.90;;;;;;5114849;28;19932;-79
2023/08/06 01:56:20;;;;;;;15.90;13.02;;;14.10;99.90;;;;;;5112596;28;20797;-79
2023/08/06 01:58:46;;;;;;;17.55;11.82;;;14.20;99.90;;;;;;5142369;27;20136;-78
2023/08/06 02:01:11;;;;;;;13.65;11.18;;;14.20;99.90;;;;;;5105320;28;20106;-79
2023/08/06 02:03:37;;;;;;;14.85;11.85;;;14.20;99.90;;;;;;5146755;27;20135;-78
2023/08/06 02:06:03;;;;;;;15.63;12.15;;;14.20;99.90;;;;;;5111907;28;20545;-78
2023/08/06 02:08:29;;;;;;;13.77;12.13;;;14.20;99.90;;;;;;5111749;28;20077;-79
2023/08/06 02:10:54;;;;;;;14.98;11.82;;;14.20;99.90;;;;;;5113062;28;20122;-79
2023/08/06 02:13:20;;;;;;;13.98;12.07;;;14.20;99.90;;;;;;5094344;28;20043;-79
2023/08/06 02:15:49;;;;;;;17.33;12.63;;;14.10;99.90;;;;;;5094067;28;20067;-79
2023/08/06 02:18:16;;;;;;;14.05;12.60;;;14.10;99.90;;;;;;5125151;27;20039;-78
2023/08/06 02:20:42;;;;;;;20.73;12.75;;;14.10;99.90;;;;;;5112655;27;20043;-78
2023/08/06 02:23:08;;;;;;;16.45;12.55;;;14.10;99.90;;;;;;5128655;27;20039;-79
2023/08/06 02:25:34;;;;;;;16.77;13.10;;;14.10;99.90;;;;;;5110777;28;20112;-78
2023/08/06 02:28:00;;;;;;;15.65;12.40;;;14.10;99.90;;;;;;5112167;28;20047;-78
2023/08/06 02:30:26;;;;;;;16.10;13.10;;;14.10;99.90;;;;;;5128890;27;20122;-78
2023/08/06 02:32:52;;;;;;;16.75;12.93;;;14.10;99.90;;;;;;5111215;28;20051;-78
2023/08/06 02:35:17;;;;;;;15.18;13.15;;;14.10;99.90;;;;;;5111920;28;20088;-78
2023/08/06 02:37:43;;;;;;;16.77;13.25;;;14.20;99.90;;;;;;5092844;28;20423;-77
2023/08/06 02:40:09;;;;;;;19.92;13.88;;;14.20;99.90;;;;;;5110454;28;20083;-77
2023/08/06 02:42:35;;;;;;;14.98;13.38;;;14.20;99.90;;;;;;5110851;28;20414;-78
2023/08/06 02:45:00;;;;;;;19.65;14.40;;;14.20;99.90;;;;;;5110510;28;20036;-78
2023/08/06 02:47:26;;;;;;;16.40;12.93;;;14.20;99.90;;;;;;5103357;28;20040;-79
2023/08/06 02:49:52;;;;;;;17.20;12.95;;;14.20;99.90;;;;;;5112066;28;20056;-78
2023/08/06 02:52:18;;;;;;;15.02;12.95;;;14.20;99.90;;;;;;5110920;28;20059;-77
2023/08/06 02:54:44;;;;;;;15.65;14.02;;;14.20;99.90;;;;;;5112015;28;20122;-78
2023/08/06 02:57:09;;;;;;;15.57;13.50;;;14.20;99.90;;;;;;5111510;28;20123;-78
2023/08/06 02:59:35;;;;;;;19.27;13.88;;;14.20;99.90;;;;;;5115911;28;20047;-78
2023/08/06 03:02:01;;;;;;;15.02;13.18;;;14.20;99.90;;;;;;5115120;28;20062;-78
2023/08/06 03:04:26;;;;;;;17.58;12.85;;;14.20;99.90;;;;;;5114971;28;20407;-78
2023/08/06 03:06:52;;;;;;;15.20;12.52;;;14.20;99.90;;;;;;5116489;28;20127;-78
2023/08/06 03:09:18;;;;;;;17.70;12.20;;;14.20;99.90;;;;;;5081073;28;20134;-78
2023/08/06 03:11:44;;;;;;;13.77;12.20;;;14.20;99.90;;;;;;5114841;28;21014;-78
2023/08/06 03:14:10;;;;;;;15.43;12.55;;;14.20;99.90;;;;;;5094727;28;20160;-78
2023/08/06 03:16:36;;;;;;;12.52;11.23;;;14.20;99.90;;;;;;5113327;28;20043;-79
2023/08/06 03:19:01;;;;;;;16.45;11.95;;;14.20;99.90;;;;;;5114659;28;20404;-78
2023/08/06 03:21:27;;;;;;;13.07;11.57;;;14.30;99.90;;;;;;5115889;28;20039;-78
2023/08/06 03:23:53;;;;;;;13.65;12.18;;;14.20;99.90;;;;;;5116229;28;20120;-78
2023/08/06 03:26:18;;;;;;;13.45;12.05;;;14.20;99.90;;;;;;5115840;28;20047;-79
2023/08/06 03:28:44;;;;;;;14.35;11.77;;;14.30;99.90;;;;;;5114397;28;20036;-77
2023/08/06 03:31:10;;;;;;;16.05;12.15;;;14.20;99.90;;;;;;5113459;28;20044;-77
2023/08/06 03:33:36;;;;;;;14.60;12.20;;;14.20;99.90;;;;;;5114898;28;20040;-78
2023/08/06 03:36:02;;;;;;;13.40;12.10;;;14.20;99.90;;;;;;5115500;28;20060;-79
2023/08/06 03:38:27;;;;;;;15.07;12.27;;;14.20;99.90;;;;;;5112976;28;20488;-77
2023/08/06 03:40:53;;;;;;;13.55;12.15;;;14.20;99.90;;;;;;5096779;28;20054;-78
2023/08/06 03:43:19;;;;;;;12.82;11.50;;;14.20;99.90;;;;;;5097537;28;20039;-78
2023/08/06 03:45:45;;;;;;;13.25;11.85;;;14.30;99.90;;;;;;5096738;28;20058;-78
2023/08/06 03:48:10;;;;;;;18.35;12.65;;;14.30;99.90;;;;;;5114022;28;20051;-78
2023/08/06 03:50:36;;;;;;;14.23;12.13;;;14.30;99.90;;;;;;5112554;28;20040;-78
2023/08/06 03:53:02;;;;;;;13.77;11.80;;;14.20;99.90;;;;;;5114552;28;20117;-77
2023/08/06 03:55:28;;;;;;;18.08;12.50;;;14.20;99.90;;;;;;5114969;28;20047;-78
2023/08/06 03:57:53;;;;;;;16.23;12.65;;;14.30;99.90;;;;;;5130913;27;20043;-77
2023/08/06 04:00:19;;;;;;;13.35;11.95;;;14.20;99.90;;;;;;5096398;28;20044;-77
2023/08/06 04:02:45;;;;;;;17.20;12.70;;;14.20;99.90;;;;;;5114561;28;20051;-78
2023/08/06 04:05:11;;;;;;;15.48;12.93;;;14.20;99.90;;;;;;5113631;28;20077;-78
2023/08/06 04:07:37;;;;;;;17.00;12.05;;;14.20;99.90;;;;;;5114036;28;20066;-78
2023/08/06 04:10:04;;;;;;;14.10;11.80;;;14.20;99.90;;;;;;5113066;28;20046;-78
2023/08/06 04:12:30;;;;;;;14.20;12.27;;;14.20;99.90;;;;;;5107789;28;20058;-79
2023/08/06 04:14:58;;;;;;;13.90;11.52;;;14.20;99.90;;;;;;5114588;28;20070;-79
2023/08/06 04:17:24;;;;;;;14.77;11.43;;;14.20;99.90;;;;;;5113261;28;20548;-78
2023/08/06 04:19:54;;;;;;;12.55;10.80;;;14.20;99.90;;;;;;5112857;28;20119;-78
2023/08/06 04:22:21;;;;;;;14.05;11.20;;;14.20;99.90;;;;;;5113253;28;20472;-78
2023/08/06 04:24:47;;;;;;;12.75;11.10;;;14.20;99.90;;;;;;5114073;28;20050;-77
2023/08/06 04:27:14;;;;;;;13.70;11.82;;;14.20;99.90;;;;;;5114685;28;20039;-78
2023/08/06 04:29:40;;;;;;;13.02;10.85;;;14.20;99.90;;;;;;5112745;28;20052;-78
2023/08/06 04:32:08;;;;;;;13.52;11.50;;;14.20;99.90;;;;;;5114220;28;20120;-78
2023/08/06 04:34:34;;;;;;;14.07;11.02;;;14.20;99.90;;;;;;5114297;28;20109;-78
2023/08/06 04:37:00;;;;;;;15.45;11.88;;;14.20;99.90;;;;;;5115334;28;20116;-78
2023/08/06 04:39:26;;;;;;;14.85;11.38;;;14.20;99.90;;;;;;5150030;27;20044;-79
2023/08/06 04:41:52;;;;;;;12.82;10.95;;;14.20;99.90;;;;;;5112085;28;20066;-78
2023/08/06 04:44:17;;;;;;;15.85;11.05;;;14.20;99.90;;;;;;5112260;28;20476;-78
2023/08/06 04:46:43;;;;;;;13.98;10.68;;;14.20;99.90;;;;;;5113419;28;20039;-77
2023/08/06 04:49:09;;;;;;;11.73;9.90;;;14.20;99.90;;;;;;5113355;28;20050;-77
2023/08/06 04:51:35;;;;;;;12.27;10.73;;;14.20;99.90;;;;;;5114029;28;20054;-77
2023/08/06 04:54:01;;;;;;;14.32;10.82;;;14.20;99.90;;;;;;5111602;28;20048;-77
2023/08/06 04:56:27;;;;;;;13.15;10.93;;;14.30;99.90;;;;;;5088936;28;20040;-77
2023/08/06 04:58:52;;;;;;;13.05;10.18;;;14.30;99.90;;;;;;5112619;28;20053;-77
2023/08/06 05:01:18;;;;;;;14.23;9.82;;;14.30;99.90;;;;;;5114169;28;20074;-78
2023/08/06 05:03:44;;;;;;;12.77;10.52;;;14.30;99.90;;;;;;5112337;28;20046;-77
2023/08/06 05:06:10;;;;;;;12.40;10.43;;;14.30;99.90;;;;;;5111855;28;20464;-79
2023/08/06 05:08:36;;;;;;;14.07;10.07;;;14.30;99.90;;;;;;5113846;28;20043;-78
2023/08/06 05:11:02;;;;;;;13.60;10.55;;;14.40;99.90;;;;;;5113158;28;20035;-78
2023/08/06 05:13:28;;;;;;;13.30;9.68;;;14.40;99.90;;;;;;5110711;27;20059;-79
2023/08/06 05:15:54;;;;;;;11.65;10.18;;;14.50;99.90;;;;;;5113062;28;20058;-79
2023/08/06 05:18:20;;;;;;;11.90;10.30;;;14.50;99.90;;;;;;5129364;27;20055;-79
2023/08/06 05:20:46;;;;;;;13.60;9.60;;;14.50;99.90;;;;;;5111672;28;20382;-77
2023/08/06 05:23:11;;;;;;;10.68;9.57;;;14.60;99.90;;;;;;5111002;28;20043;-78
2023/08/06 05:25:38;;;;;;;13.30;9.73;;;14.60;99.90;;;;;;5095768;28;20508;-78
2023/08/06 05:28:04;;;;;;;11.00;9.38;;;14.60;99.90;;;;;;5113422;28;20512;-79
2023/08/06 05:30:30;;;;;;;13.50;9.55;;;14.60;99.90;;;;;;5113161;28;20088;-78
2023/08/06 05:32:56;;;;;;;10.32;8.95;;;14.60;99.90;;;;;;5114340;28;20047;-77
2023/08/06 05:35:22;;;;;;;10.80;9.70;;;14.60;99.90;;;;;;5113736;28;20054;-77
2023/08/06 05:37:49;;;;;;;11.52;9.25;;;14.70;99.90;;;;;;5114200;28;20051;-78
2023/08/06 05:40:15;;;;;;;12.50;9.38;;;14.70;99.90;;;;;;5114264;28;20047;-78
2023/08/06 05:42:41;;;;;;;11.95;9.50;;;14.70;99.90;;;;;;5096157;28;20059;-78
2023/08/06 05:45:07;;;;;;;12.07;8.95;;;14.80;99.90;;;;;;5111323;28;20096;-78
2023/08/06 05:47:33;;;;;;;10.85;8.90;;;14.90;99.90;;;;;;5112947;28;20048;-78
2023/08/06 05:49:59;;;;;;;10.95;8.15;;;15.30;99.90;;;;;;5112826;28;20081;-78
2023/08/06 05:52:24;;;;;;;11.63;7.88;;;16.10;99.90;;;;;;5112793;28;20051;-78
2023/08/06 05:54:50;;;;;;;10.07;7.45;;;16.40;99.90;;;;;;5111355;28;20036;-78
2023/08/06 05:57:17;;;;;;;8.80;7.68;;;16.60;99.90;;;;;;5112382;28;20067;-77
2023/08/06 05:59:42;;;;;;;8.50;7.15;;;16.60;99.90;;;;;;5113928;28;20043;-78
2023/08/06 06:02:08;;;;;;;9.38;7.20;;;16.60;99.90;;;;;;5113062;28;20454;-78
2023/08/06 06:04:34;;;;;;;9.23;7.18;;;17.20;99.90;;;;;;5111974;28;20036;-79
2023/08/06 06:07:00;;;;;;;8.93;7.28;;;17.50;99.90;;;;;;5113170;28;20044;-78
2023/08/06 06:09:25;;;;;;;9.43;6.78;;;17.40;99.90;;;;;;5112926;28;20044;-77
2023/08/06 06:11:51;;;;;;;9.48;6.38;;;17.20;99.90;;;;;;5113517;28;20122;-78
2023/08/06 06:14:18;;;;;;;7.20;6.50;;;17.10;99.90;;;;;;5113875;28;20168;-77
2023/08/06 06:16:44;;;;;;;6.80;6.05;;;16.90;99.90;;;;;;5095058;28;20052;-77
2023/08/06 06:19:09;;;;;;;7.13;6.40;;;16.80;99.90;;;;;;5113677;28;20578;-78
2023/08/06 06:21:35;;;;;;;9.40;6.60;;;16.60;99.90;;;;;;5112246;28;20051;-78
2023/08/06 06:24:01;;;;;;;6.72;5.82;;;16.60;99.90;;;;;;5113563;28;20381;-78
2023/08/06 06:26:26;;;;;;;8.15;5.40;;;16.70;99.90;;;;;;5114170;28;20369;-78
2023/08/06 06:28:52;;;;;;;7.13;5.82;;;16.80;99.90;;;;;;5112953;28;20047;-79
2023/08/06 06:31:18;;;;;;;9.00;5.85;;;16.90;99.90;;;;;;5112833;28;20052;-78
2023/08/06 06:33:44;;;;;;;6.63;5.68;;;16.80;99.90;;;;;;5095452;28;20048;-78
2023/08/06 06:36:09;;;;;;;9.00;5.95;;;16.90;99.90;;;;;;5112854;28;20059;-78
2023/08/06 06:38:36;;;;;;;7.18;5.38;;;16.80;99.90;;;;;;5112569;28;20050;-78
2023/08/06 06:41:03;;;;;;;7.43;5.75;;;16.90;99.90;;;;;;5112864;28;20043;-78
2023/08/06 06:43:29;;;;;;;6.57;4.60;;;16.90;99.90;;;;;;5114120;28;20043;-79
2023/08/06 06:45:58;;;;;;;6.32;5.13;;;16.90;99.90;;;;;;5112036;28;20047;-77
2023/08/06 06:48:29;;;;;;;7.65;5.18;;;16.90;99.90;;;;;;5114056;28;20423;-79
2023/08/06 06:50:55;;;;;;;7.88;5.68;;;16.80;99.90;;;;;;5113689;28;20096;-78
2023/08/06 06:53:21;;;;;;;6.65;5.47;;;16.80;99.90;;;;;;5103463;28;20534;-78
2023/08/06 06:55:49;;;;;;;5.72;5.13;;;16.90;99.90;;;;;;5116138;28;20043;-78
2023/08/06 06:58:16;;;;;;;7.35;5.90;;;16.80;99.90;;;;;;5111669;28;20035;-78
2023/08/06 07:00:42;;;;;;;8.70;5.38;;;16.90;99.90;;;;;;5112936;28;20056;-78
2023/08/06 07:03:07;;;;;;;7.32;5.60;;;17.00;99.90;;;;;;5113179;28;20044;-77
2023/08/06 07:05:33;;;;;;;7.80;4.97;;;17.10;99.90;;;;;;5113437;28;20131;-78
2023/08/06 07:07:59;;;;;;;9.27;5.55;;;17.20;99.90;;;;;;5112571;28;20393;-80
2023/08/06 07:10:25;;;;;;;9.23;5.50;;;17.40;99.90;;;;;;5113104;28;20126;-78
2023/08/06 07:12:51;;;;;;;11.50;5.30;;;17.50;99.90;;;;;;5113284;28;20407;-78
2023/08/06 07:15:17;;;;;;;15.45;8.43;;;17.60;99.90;;;;;;5113225;28;20092;-79
2023/08/06 07:17:43;;;;;;;37.70;21.88;;;17.70;99.90;;;;;;5111858;28;20048;-79
2023/08/06 07:20:09;;;;;;;33.60;20.25;;;17.90;99.90;;;;;;5111884;28;20424;-77
2023/08/06 07:22:35;;;;;;;8.20;4.97;;;18.10;99.90;;;;;;5112030;28;20381;-79
2023/08/06 07:25:01;;;;;;;6.22;4.30;;;18.20;99.90;;;;;;5111183;28;20062;-78
2023/08/06 07:27:27;;;;;;;6.32;4.75;;;18.50;99.90;;;;;;5113162;28;20047;-78
2023/08/06 07:29:53;;;;;;;7.38;5.00;;;19.00;99.90;;;;;;5110002;28;20051;-78
2023/08/06 07:32:19;;;;;;;30.35;18.42;;;19.60;99.90;;;;;;5092489;28;20071;-79
2023/08/06 07:34:44;;;;;;;7.15;4.80;;;20.10;99.90;;;;;;5095180;28;20044;-78
2023/08/06 07:37:10;;;;;;;5.30;4.15;;;20.50;99.90;;;;;;5112640;28;20051;-79
2023/08/06 07:39:37;;;;;;;6.53;4.15;;;20.40;99.90;;;;;;5113151;28;20048;-79
2023/08/06 07:42:05;;;;;;;5.85;4.43;;;20.60;99.90;;;;;;5105697;28;20060;-79
2023/08/06 07:44:31;;;;;;;6.82;4.15;;;20.90;99.90;;;;;;5117435;28;20058;-80
2023/08/06 07:46:57;;;;;;;6.10;4.00;;;20.80;99.90;;;;;;5098846;28;20052;-80
2023/08/06 07:49:22;;;;;;;7.13;4.05;;;20.80;99.90;;;;;;5114739;28;20130;-80
2023/08/06 07:51:48;;;;;;;6.32;4.22;;;21.30;99.90;;;;;;5108972;28;20048;-79
2023/08/06 07:54:14;;;;;;;6.22;4.05;;;21.90;99.90;;;;;;5114346;28;20050;-79
2023/08/06 07:56:39;;;;;;;4.53;3.50;;;22.90;99.90;;;;;;5116464;28;20036;-81
2023/08/06 07:59:05;;;;;;;4.90;3.58;;;23.70;99.90;;;;;;5115636;28;20401;-81
2023/08/06 08:01:31;;;;;;;4.97;3.50;;;24.30;99.90;;;;;;5116154;28;20114;-82
2023/08/06 08:03:56;;;;;;;5.75;3.30;;;24.60;99.90;;;;;;5099198;28;20040;-80
2023/08/06 08:06:23;;;;;;;5.03;3.20;;;24.30;99.90;;;;;;5132688;27;20074;-83
2023/08/06 08:08:49;;;;;;;4.85;3.10;;;24.10;99.90;;;;;;5115718;28;20465;-81
2023/08/06 08:11:15;;;;;;;4.72;3.50;;;24.00;99.90;;;;;;5079697;28;20051;-79
2023/08/06 08:13:41;;;;;;;6.03;3.72;;;23.80;99.90;;;;;;5115805;27;20079;-76
2023/08/06 08:16:07;;;;;;;7.85;3.50;;;23.60;99.90;;;;;;5114931;28;20083;-77
2023/08/06 08:18:33;;;;;;;4.25;3.33;;;23.40;99.90;;;;;;5114673;28;20044;-77
2023/08/06 08:20:59;;;;;;;4.53;3.13;;;23.20;99.90;;;;;;5115462;28;20130;-77
2023/08/06 08:23:25;;;;;;;5.18;3.40;;;23.30;99.90;;;;;;5114180;28;20077;-78
2023/08/06 08:25:51;;;;;;;4.35;3.45;;;23.40;99.90;;;;;;5106160;28;20036;-77
2023/08/06 08:28:16;;;;;;;4.35;3.25;;;23.50;99.90;;;;;;5114022;28;20492;-77
2023/08/06 08:30:42;;;;;;;4.10;3.10;;;23.50;99.90;;;;;;5114208;28;20043;-77
2023/08/06 08:33:08;;;;;;;7.72;3.22;;;23.50;99.90;;;;;;5115020;27;20492;-74
2023/08/06 08:35:34;;;;;;;4.35;3.40;;;23.60;99.90;;;;;;5114067;28;20047;-77
2023/08/06 08:38:00;;;;;;;3.80;2.90;;;23.50;99.90;;;;;;5114551;28;20134;-77
2023/08/06 08:40:32;;;;;;;6.72;2.80;;;23.90;99.90;;;;;;5113657;28;20083;-78
2023/08/06 08:42:59;;;;;;;3.67;2.78;;;24.60;99.90;;;;;;5115886;28;20042;-78
2023/08/06 08:45:28;;;;;;;4.43;3.40;;;24.90;99.90;;;;;;5114507;28;20050;-79
2023/08/06 08:47:55;;;;;;;4.60;2.92;;;25.00;99.90;;;;;;5116281;28;20137;-79
2023/08/06 08:50:21;;;;;;;4.68;2.88;;;25.00;99.90;;;;;;5115535;28;20119;-79
2023/08/06 08:52:48;;;;;;;3.85;2.90;;;25.00;99.90;;;;;;5114870;28;20058;-77
2023/08/06 08:55:16;;;;;;;3.38;2.30;;;25.20;99.90;;;;;;5115248;28;20044;-78
2023/08/06 08:57:42;;;;;;;3.40;2.40;;;25.10;99.90;;;;;;5116229;28;20048;-78
2023/08/06 09:00:08;;;;;;;5.63;2.65;;;25.00;99.90;;;;;;5116467;28;20074;-79
2023/08/06 09:02:34;;;;;;;4.47;2.83;;;24.70;99.90;;;;;;5114107;28;20658;-79
2023/08/06 09:05:04;;;;;;;4.28;2.70;;;24.70;99.90;;;;;;5114563;28;20047;-79
2023/08/06 09:07:35;;;;;;;5.72;2.72;;;24.60;99.90;;;;;;5113773;28;20062;-79
2023/08/06 09:10:06;;;;;;;3.20;2.30;;;24.60;99.90;;;;;;5116990;28;20092;-80
2023/08/06 09:12:31;;;;;;;5.78;2.70;;;24.50;99.90;;;;;;5112327;28;20054;-78
2023/08/06 09:14:58;;;;;;;4.75;2.25;;;24.40;99.90;;;;;;5115419;28;20043;-80
2023/08/06 09:17:23;;;;;;;3.28;2.20;;;24.60;99.90;;;;;;5115647;27;20361;-78
2023/08/06 09:19:49;;;;;;;3.28;2.17;;;24.60;99.90;;;;;;5115837;28;20046;-81
2023/08/06 09:22:15;;;;;;;3.38;2.17;;;24.50;99.90;;;;;;5114217;28;20055;-76
2023/08/06 09:24:42;;;;;;;4.18;2.00;;;24.60;99.90;;;;;;5115337;28;20058;-80
2023/08/06 09:27:13;;;;;;;3.35;2.05;;;24.50;99.90;;;;;;5131845;27;20200;-81
2023/08/06 09:29:43;;;;;;;5.05;2.00;;;24.60;99.90;;;;;;5114796;27;20116;-80
2023/08/06 09:32:08;;;;;;;2.92;2.00;;;24.70;99.90;;;;;;5113861;28;20050;-80
2023/08/06 09:34:34;;;;;;;5.28;2.50;;;25.00;99.90;;;;;;5113080;28;20103;-78
2023/08/06 09:37:00;;;;;;;3.70;2.15;;;25.00;99.90;;;;;;5113804;28;20060;-79
2023/08/06 09:39:30;;;;;;;4.50;2.03;;;25.00;99.90;;;;;;5112486;28;20416;-79
2023/08/06 09:42:01;;;;;;;2.97;2.03;;;25.10;99.90;;;;;;5116288;28;20050;-79
2023/08/06 09:44:28;;;;;;;7.43;2.08;;;25.10;99.90;;;;;;5113462;28;20048;-80
2023/08/06 09:46:55;;;;;;;2.95;2.00;;;24.90;99.90;;;;;;5114372;28;20124;-80
2023/08/06 09:49:27;;;;;;;3.85;1.80;;;24.80;99.90;;;;;;5114259;28;20047;-80
2023/08/06 09:51:55;;;;;;;4.38;2.00;;;24.90;99.90;;;;;;5113406;28;20105;-79
2023/08/06 09:54:26;;;;;;;4.05;1.80;;;24.90;99.90;;;;;;5113265;28;20496;-78
2023/08/06 09:56:52;;;;;;;3.75;1.83;;;25.00;99.90;;;;;;5111628;28;20075;-77
2023/08/06 09:59:19;;;;;;;3.03;1.90;;;25.00;99.90;;;;;;5113699;28;20142;-79
2023/08/06 10:01:46;;;;;;;4.03;1.90;;;24.90;99.90;;;;;;5118853;28;20051;-79
2023/08/06 10:04:16;;;;;;;5.25;2.05;;;24.90;99.90;;;;;;5113723;28;20120;-80
2023/08/06 10:06:42;;;;;;;3.60;2.20;;;25.00;99.90;;;;;;5096182;28;20050;-78
2023/08/06 10:09:09;;;;;;;3.40;1.88;;;25.10;99.90;;;;;;5113676;28;20048;-79
2023/08/06 10:11:37;;;;;;;3.45;2.00;;;25.20;99.90;;;;;;5113108;28;20059;-80
2023/08/06 10:14:13;;;;;;;3.53;1.73;;;25.20;99.90;;;;;;5113401;28;20501;-81
2023/08/06 10:16:40;;;;;;;4.35;1.92;;;24.90;99.90;;;;;;5109989;28;20039;-81
2023/08/06 10:19:09;;;;;;;6.03;2.50;;;24.90;99.90;;;;;;5095112;28;20039;-81
2023/08/06 10:21:35;;;;;;;3.33;1.80;;;24.90;99.90;;;;;;5116269;28;20105;-80
2023/08/06 10:24:02;;;;;;;2.60;1.83;;;24.80;99.90;;;;;;5113277;28;20160;-76
2023/08/06 10:26:29;;;;;;;3.85;1.90;;;24.60;99.90;;;;;;5113062;28;20047;-81
2023/08/06 10:28:55;;;;;;;3.03;1.90;;;24.50;99.90;;;;;;5113289;27;20044;-82
2023/08/06 10:31:53;;;;;;;4.05;2.10;;;24.30;99.90;;;;;;5114225;28;20054;-80
2023/08/06 10:34:19;;;;;;;3.95;2.10;;;24.20;99.90;;;;;;5114002;28;20089;-81
2023/08/06 10:36:45;;;;;;;5.78;2.20;;;24.20;99.90;;;;;;5110952;28;20051;-80
2023/08/06 10:39:14;;;;;;;3.42;2.00;;;24.20;99.90;;;;;;5112391;28;20043;-81
2023/08/06 10:41:42;;;;;;;4.18;2.03;;;24.20;99.90;;;;;;5112642;28;20080;-80
2023/08/06 10:44:10;;;;;;;4.60;2.00;;;24.20;99.90;;;;;;5114410;28;20040;-80
2023/08/06 10:46:36;;;;;;;3.42;1.90;;;24.30;99.90;;;;;;5114061;28;20047;-80
2023/08/06 10:49:07;;;;;;;6.55;2.03;;;24.30;99.90;;;;;;5113958;28;20039;-83
2023/08/06 10:51:33;;;;;;;3.33;1.80;;;24.30;99.90;;;;;;5113437;28;20105;-81
2023/08/06 10:53:59;;;;;;;3.80;1.80;;;24.40;99.90;;;;;;5112811;28;20531;-80
2023/08/06 10:56:26;;;;;;;2.97;1.67;;;24.30;99.90;;;;;;5113615;28;20039;-80
2023/08/06 10:58:58;;;;;;;3.30;1.60;;;24.20;99.90;;;;;;5113985;28;20044;-80
2023/08/06 11:01:24;;;;;;;2.80;1.77;;;24.20;99.90;;;;;;5114980;28;20061;-80
2023/08/06 11:03:52;;;;;;;3.60;1.90;;;24.10;99.90;;;;;;5115396;28;20398;-81
2023/08/06 11:06:22;;;;;;;3.28;1.70;;;24.10;99.90;;;;;;5114791;28;20067;-81
2023/08/06 11:08:54;;;;;;;2.95;1.80;;;24.00;99.90;;;;;;5114726;28;20086;-78
2023/08/06 11:11:22;;;;;;;3.50;1.90;;;24.10;99.90;;;;;;5115738;28;20138;-81
2023/08/06 11:13:49;;;;;;;3.25;1.70;;;24.20;99.90;;;;;;5115299;28;20408;-82
2023/08/06 11:16:16;;;;;;;4.43;2.20;;;24.10;99.90;;;;;;5114405;28;20078;-76
2023/08/06 11:18:42;;;;;;;3.20;1.92;;;24.10;99.90;;;;;;5114272;28;20068;-77
2023/08/06 11:21:08;;;;;;;3.92;1.85;;;24.10;99.90;;;;;;5116837;28;20120;-77
2023/08/06 11:23:35;;;;;;;3.17;1.80;;;24.10;99.90;;;;;;5117562;28;20618;-77
2023/08/06 11:26:01;;;;;;;2.75;1.75;;;24.00;99.90;;;;;;5121812;28;20362;-77
2023/08/06 11:28:26;;;;;;;3.72;1.98;;;23.90;99.90;;;;;;5123844;27;20035;-77
2023/08/06 11:30:53;;;;;;;2.63;1.80;;;24.00;99.90;;;;;;5117368;28;20082;-77
2023/08/06 11:33:26;;;;;;;5.47;1.75;;;24.00;99.90;;;;;;5115805;28;20075;-77
2023/08/06 11:35:52;;;;;;;3.67;2.00;;;24.00;99.40;;;;;;5115969;28;20056;-78
2023/08/06 11:38:18;;;;;;;3.10;1.60;;;24.10;99.90;;;;;;5099629;28;20490;-79
2023/08/06 11:40:45;;;;;;;3.10;1.70;;;24.20;99.90;;;;;;5097930;28;20118;-77
2023/08/06 11:43:12;;;;;;;4.13;2.22;;;24.10;99.30;;;;;;5115037;28;20047;-77
2023/08/06 11:45:38;;;;;;;3.55;1.73;;;24.10;99.90;;;;;;5097689;28;20088;-72
2023/08/06 11:48:05;;;;;;;6.47;2.00;;;23.90;99.90;;;;;;5113645;27;20043;-72
2023/08/06 11:50:31;;;;;;;5.25;1.67;;;23.90;99.90;;;;;;5114370;27;20043;-74
2023/08/06 11:52:58;;;;;;;2.78;1.70;;;24.00;99.90;;;;;;5114639;27;20582;-75
2023/08/06 11:55:25;;;;;;;2.90;1.95;;;24.00;99.80;;;;;;5114679;28;20114;-74
2023/08/06 11:57:51;;;;;;;3.90;1.90;;;24.20;99.90;;;;;;5113323;28;20055;-71
2023/08/06 12:00:19;;;;;;;3.20;1.90;;;24.10;99.60;;;;;;5113209;28;20501;-72
2023/08/06 12:02:46;;;;;;;3.83;1.70;;;24.10;99.90;;;;;;5114437;28;20047;-72
2023/08/06 12:05:12;;;;;;;3.40;2.25;;;24.10;99.70;;;;;;5114056;28;20145;-71
2023/08/06 12:07:40;;;;;;;3.70;2.20;;;24.10;99.90;;;;;;5114435;28;20036;-77
2023/08/06 12:10:06;;;;;;;3.03;1.83;;;23.90;99.90;;;;;;5116524;28;20412;-76
2023/08/06 12:12:32;;;;;;;3.78;2.25;;;23.70;99.90;;;;;;5099239;28;20420;-79
2023/08/06 12:14:57;;;;;;;4.70;2.00;;;23.60;99.90;;;;;;5116124;28;20050;-77
2023/08/06 12:17:24;;;;;;;4.50;1.90;;;23.50;99.90;;;;;;5098857;28;20044;-81
2023/08/06 12:19:50;;;;;;;4.22;1.88;;;23.50;99.90;;;;;;5115246;28;20035;-77
2023/08/06 12:22:16;;;;;;;2.25;1.73;;;23.50;99.90;;;;;;5114267;28;20055;-79
2023/08/06 12:24:42;;;;;;;3.65;2.05;;;23.50;99.90;;;;;;5113967;28;20381;-79
2023/08/06 12:27:09;;;;;;;2.60;1.80;;;23.40;99.90;;;;;;5116037;28;20454;-78
2023/08/06 12:29:35;;;;;;;4.10;1.92;;;23.20;99.90;;;;;;5113911;28;20349;-79
2023/08/06 12:32:01;;;;;;;4.30;1.70;;;23.20;99.90;;;;;;5116930;28;20200;-78
2023/08/06 12:34:27;;;;;;;4.97;1.80;;;23.40;99.90;;;;;;5117079;28;20070;-78
2023/08/06 12:36:53;;;;;;;3.13;1.58;;;23.40;99.90;;;;;;5096674;28;20052;-80
2023/08/06 12:39:19;;;;;;;2.55;1.77;;;23.40;99.90;;;;;;5115305;28;20051;-78
2023/08/06 12:41:45;;;;;;;4.35;2.00;;;23.40;99.90;;;;;;5115116;28;20047;-79
2023/08/06 12:44:12;;;;;;;3.67;1.80;;;23.20;99.90;;;;;;5114712;28;20443;-79
2023/08/06 12:46:38;;;;;;;2.90;1.85;;;23.20;99.90;;;;;;5115973;27;20038;-80
2023/08/06 12:49:03;;;;;;;4.38;2.03;;;23.20;99.90;;;;;;5114316;28;20040;-77